sensor_id;sensor_type;location;lat;lon;timestamp;temperature;humidity
43049;DHT22;28673;44.412;11.918;2024-02-16T00:02:00;8.00;99.90
43049;DHT22;28673;44.412;11.918;2024-02-16T00:04:27;8.00;99.90
43049;DHT22;28673;44.412;11.918;2024-02-16T00:06:53;8.10;99.90
43049;DHT22;28673;44.412;11.918;2024-02-16T00:09:19;8.00;99.90
43049;DHT22;28673;44.412;11.918;2024-02-16T00:11:44;8.10;99.90
43049;DHT22;28673;44.412;11.918;2024-02-16T00:14:10;8.00;99.90
43049;DHT22;28673;44.412;11.918;2024-02-16T00:16:36;8.00;99.90
43049;DHT22;28673;44.412;11.918;2024-02-16T00:19:02;8.00;99.90
43049;DHT22;28673;44.412;11.918;2024-02-16T00:21:28;8.00;99.90
43049;DHT22;28673;44.412;11.918;2024-02-16T00:23:54;8.00;99.90
43049;DHT22;28673;44.412;11.918;2024-02-16T00:26:20;8.00;99.90
43049;DHT22;28673;44.412;11.918;2024-02-16T00:28:46;8.00;99.90
43049;DHT22;28673;44.412;11.918;2024-02-16T00:31:12;8.00;99.90
43049;DHT22;28673;44.412;11.918;2024-02-16T00:33:38;8.00;99.90
43049;DHT22;28673;44.412;11.918;2024-02-16T00:36:04;8.00;99.90
43049;DHT22;28673;44.412;11.918;2024-02-16T00:38:30;8.00;99.90
43049;DHT22;28673;44.412;11.918;2024-02-16T00:40:55;8.00;99.90
43049;DHT22;28673;44.412;11.918;2024-02-16T00:43:21;7.90;99.90
43049;DHT22;28673;44.412;11.918;2024-02-16T00:45:47;7.90;99.90
43049;DHT22;28673;44.412;11.918;2024-02-16T00:48:14;7.90;99.90
43049;DHT22;28673;44.412;11.918;2024-02-16T00:50:39;7.90;99.90
43049;DHT22;28673;44.412;11.918;2024-02-16T00:53:08;7.90;99.90
43049;DHT22;28673;44.412;11.918;2024-02-16T00:55:33;7.90;99.90
43049;DHT22;28673;44.412;11.918;2024-02-16T00:57:59;7.90;99.90
43049;DHT22;28673;44.412;11.918;2024-02-16T01:00:25;7.90;99.90
43049;DHT22;28673;44.412;11.918;2024-02-16T01:02:51;7.80;99.90
43049;DHT22;28673;44.412;11.918;2024-02-16T01:05:18;7.80;99.90
43049;DHT22;28673;44.412;11.918;2024-02-16T01:07:44;7.80;99.90
43049;DHT22;28673;44.412;11.918;2024-02-16T01:10:11;7.80;99.90
43049;DHT22;28673;44.412;11.918;2024-02-16T01:12:38;7.80;99.90
43049;DHT22;28673;44.412;11.918;2024-02-16T01:15:04;7.80;99.90
43049;DHT22;28673;44.412;11.918;2024-02-16T01:17:30;7.80;99.90
43049;DHT22;28673;44.412;11.918;2024-02-16T01:20:00;7.80;99.90
43049;DHT22;28673;44.412;11.918;2024-02-16T01:22:25;7.80;99.90
43049;DHT22;28673;44.412;11.918;2024-02-16T01:24:54;7.80;99.90
43049;DHT22;28673;44.412;11.918;2024-02-16T01:27:20;7.70;99.90
43049;DHT22;28673;44.412;11.918;2024-02-16T01:29:46;7.70;99.90
43049;DHT22;28673;44.412;11.918;2024-02-16T01:32:12;7.70;99.90
43049;DHT22;28673;44.412;11.918;2024-02-16T01:34:39;7.70;99.90
43049;DHT22;28673;44.412;11.918;2024-02-16T01:37:05;7.70;99.90
43049;DHT22;28673;44.412;11.918;2024-02-16T01:39:31;7.70;99.90
43049;DHT22;28673;44.412;11.918;2024-02-16T01:41:56;7.60;99.90
43049;DHT22;28673;44.412;11.918;2024-02-16T01:44:22;7.60;99.90
43049;DHT22;28673;44.412;11.918;2024-02-16T01:46:48;7.50;99.90
43049;DHT22;28673;44.412;11.918;2024-02-16T01:49:14;7.60;99.90
43049;DHT22;28673;44.412;11.918;2024-02-16T01:51:41;7.60;99.90
43049;DHT22;28673;44.412;11.918;2024-02-16T01:54:08;7.50;99.90
43049;DHT22;28673;44.412;11.918;2024-02-16T01:56:33;7.50;99.90
43049;DHT22;28673;44.412;11.918;2024-02-16T01:58:59;7.50;99.90
43049;DHT22;28673;44.412;11.918;2024-02-16T02:01:25;7.50;99.90
43049;DHT22;28673;44.412;11.918;2024-02-16T02:03:51;7.40;99.90
43049;DHT22;28673;44.412;11.918;2024-02-16T02:06:16;7.40;99.90
43049;DHT22;28673;44.412;11.918;2024-02-16T02:08:42;7.40;99.90
43049;DHT22;28673;44.412;11.918;2024-02-16T02:11:08;7.30;99.90
43049;DHT22;28673;44.412;11.918;2024-02-16T02:13:34;7.30;99.90
43049;DHT22;28673;44.412;11.918;2024-02-16T02:16:00;7.30;99.90
43049;DHT22;28673;44.412;11.918;2024-02-16T02:18:29;7.30;99.90
43049;DHT22;28673;44.412;11.918;2024-02-16T02:20:54;7.30;99.90
43049;DHT22;28673;44.412;11.918;2024-02-16T02:23:20;7.30;99.90
43049;DHT22;28673;44.412;11.918;2024-02-16T02:25:46;7.20;99.90
43049;DHT22;28673;44.412;11.918;2024-02-16T02:28:14;7.20;99.90
43049;DHT22;28673;44.412;11.918;2024-02-16T02:30:41;7.20;99.90
43049;DHT22;28673;44.412;11.918;2024-02-16T02:33:08;7.20;99.90
43049;DHT22;28673;44.412;11.918;2024-02-16T02:35:34;7.20;99.90
43049;DHT22;28673;44.412;11.918;2024-02-16T02:38:00;7.20;99.90
43049;DHT22;28673;44.412;11.918;2024-02-16T02:40:26;7.10;99.90
43049;DHT22;28673;44.412;11.918;2024-02-16T02:42:52;7.10;99.90
43049;DHT22;28673;44.412;11.918;2024-02-16T02:45:19;7.10;99.90
43049;DHT22;28673;44.412;11.918;2024-02-16T02:47:44;7.10;99.90
43049;DHT22;28673;44.412;11.918;2024-02-16T02:50:12;7.10;99.90
43049;DHT22;28673;44.412;11.918;2024-02-16T02:52:37;7.00;99.90
43049;DHT22;28673;44.412;11.918;2024-02-16T02:55:06;7.00;99.90
43049;DHT22;28673;44.412;11.918;2024-02-16T02:57:32;7.00;99.90
43049;DHT22;28673;44.412;11.918;2024-02-16T03:00:04;7.00;99.90
43049;DHT22;28673;44.412;11.918;2024-02-16T03:02:32;7.00;99.90
43049;DHT22;28673;44.412;11.918;2024-02-16T03:04:57;7.00;99.90
43049;DHT22;28673;44.412;11.918;2024-02-16T03:07:23;7.00;99.90
43049;DHT22;28673;44.412;11.918;2024-02-16T03:09:50;7.00;99.90
43049;DHT22;28673;44.412;11.918;2024-02-16T03:12:16;7.00;99.90
43049;DHT22;28673;44.412;11.918;2024-02-16T03:14:41;6.90;99.90
43049;DHT22;28673;44.412;11.918;2024-02-16T03:17:07;6.90;99.90
43049;DHT22;28673;44.412;11.918;2024-02-16T03:19:33;6.90;99.90
43049;DHT22;28673;44.412;11.918;2024-02-16T03:22:00;6.90;99.90
43049;DHT22;28673;44.412;11.918;2024-02-16T03:24:25;6.90;99.90
43049;DHT22;28673;44.412;11.918;2024-02-16T03:26:51;6.90;99.90
43049;DHT22;28673;44.412;11.918;2024-02-16T03:29:17;6.80;99.90
43049;DHT22;28673;44.412;11.918;2024-02-16T03:31:43;6.80;99.90
43049;DHT22;28673;44.412;11.918;2024-02-16T03:34:08;6.80;99.90
43049;DHT22;28673;44.412;11.918;2024-02-16T03:36:34;6.80;99.90
43049;DHT22;28673;44.412;11.918;2024-02-16T03:39:00;6.80;99.90
43049;DHT22;28673;44.412;11.918;2024-02-16T03:41:25;6.80;99.90
43049;DHT22;28673;44.412;11.918;2024-02-16T03:43:51;6.80;99.90
43049;DHT22;28673;44.412;11.918;2024-02-16T03:46:18;6.80;99.90
43049;DHT22;28673;44.412;11.918;2024-02-16T03:48:44;6.80;99.90
43049;DHT22;28673;44.412;11.918;2024-02-16T03:51:10;6.80;99.90
43049;DHT22;28673;44.412;11.918;2024-02-16T03:53:36;6.80;99.90
43049;DHT22;28673;44.412;11.918;2024-02-16T03:56:04;6.80;99.90
43049;DHT22;28673;44.412;11.918;2024-02-16T03:58:31;6.70;99.90
43049;DHT22;28673;44.412;11.918;2024-02-16T04:00:57;6.60;99.90
43049;DHT22;28673;44.412;11.918;2024-02-16T04:03:24;6.60;99.90
43049;DHT22;28673;44.412;11.918;2024-02-16T04:05:49;6.60;99.90
43049;DHT22;28673;44.412;11.918;2024-02-16T04:08:15;6.60;99.90
43049;DHT22;28673;44.412;11.918;2024-02-16T04:10:41;6.60;99.90
43049;DHT22;28673;44.412;11.918;2024-02-16T04:13:06;6.60;99.90
43049;DHT22;28673;44.412;11.918;2024-02-16T04:15:32;6.60;99.90
43049;DHT22;28673;44.412;11.918;2024-02-16T04:17:58;6.60;99.90
43049;DHT22;28673;44.412;11.918;2024-02-16T04:20:24;6.60;99.90
43049;DHT22;28673;44.412;11.918;2024-02-16T04:22:49;6.50;99.90
43049;DHT22;28673;44.412;11.918;2024-02-16T04:25:15;6.50;99.90
43049;DHT22;28673;44.412;11.918;2024-02-16T04:27:41;6.40;99.90
43049;DHT22;28673;44.412;11.918;2024-02-16T04:30:07;6.30;99.90
43049;DHT22;28673;44.412;11.918;2024-02-16T04:32:33;6.40;99.90
43049;DHT22;28673;44.412;11.918;2024-02-16T04:34:59;6.40;99.90
43049;DHT22;28673;44.412;11.918;2024-02-16T04:37:27;6.30;99.90
43049;DHT22;28673;44.412;11.918;2024-02-16T04:39:53;6.30;99.90
43049;DHT22;28673;44.412;11.918;2024-02-16T04:42:19;6.30;99.90
43049;DHT22;28673;44.412;11.918;2024-02-16T04:44:45;6.30;99.90
43049;DHT22;28673;44.412;11.918;2024-02-16T04:47:10;6.30;99.90
43049;DHT22;28673;44.412;11.918;2024-02-16T04:49:37;6.30;99.90
43049;DHT22;28673;44.412;11.918;2024-02-16T04:52:03;6.30;99.90
43049;DHT22;28673;44.412;11.918;2024-02-16T04:54:29;6.30;99.90
43049;DHT22;28673;44.412;11.918;2024-02-16T04:56:55;6.30;99.90
43049;DHT22;28673;44.412;11.918;2024-02-16T04:59:20;6.30;99.90
43049;DHT22;28673;44.412;11.918;2024-02-16T05:01:46;6.20;99.90
43049;DHT22;28673;44.412;11.918;2024-02-16T05:04:13;6.20;99.90
43049;DHT22;28673;44.412;11.918;2024-02-16T05:06:45;6.20;99.90
43049;DHT22;28673;44.412;11.918;2024-02-16T05:09:13;6.20;99.90
43049;DHT22;28673;44.412;11.918;2024-02-16T05:11:42;6.20;99.90
43049;DHT22;28673;44.412;11.918;2024-02-16T05:14:09;6.10;99.90
43049;DHT22;28673;44.412;11.918;2024-02-16T05:16:42;6.00;99.90
43049;DHT22;28673;44.412;11.918;2024-02-16T05:19:07;6.00;99.90
43049;DHT22;28673;44.412;11.918;2024-02-16T05:21:33;5.90;99.90
43049;DHT22;28673;44.412;11.918;2024-02-16T05:23:59;5.80;99.90
43049;DHT22;28673;44.412;11.918;2024-02-16T05:26:25;5.70;99.90
43049;DHT22;28673;44.412;11.918;2024-02-16T05:28:50;5.70;99.90
43049;DHT22;28673;44.412;11.918;2024-02-16T05:31:17;5.70;99.90
43049;DHT22;28673;44.412;11.918;2024-02-16T05:33:48;5.80;99.90
43049;DHT22;28673;44.412;11.918;2024-02-16T05:36:21;5.70;99.90
43049;DHT22;28673;44.412;11.918;2024-02-16T05:38:50;5.70;99.90
43049;DHT22;28673;44.412;11.918;2024-02-16T05:41:17;5.70;99.90
43049;DHT22;28673;44.412;11.918;2024-02-16T05:43:44;5.60;99.90
43049;DHT22;28673;44.412;11.918;2024-02-16T05:46:16;5.60;99.90
43049;DHT22;28673;44.412;11.918;2024-02-16T05:48:43;5.50;99.90
43049;DHT22;28673;44.412;11.918;2024-02-16T05:51:09;5.40;99.90
43049;DHT22;28673;44.412;11.918;2024-02-16T05:53:38;5.40;99.90
43049;DHT22;28673;44.412;11.918;2024-02-16T05:56:04;5.30;99.90
43049;DHT22;28673;44.412;11.918;2024-02-16T05:58:31;5.30;99.90
43049;DHT22;28673;44.412;11.918;2024-02-16T06:00:56;5.30;99.90
43049;DHT22;28673;44.412;11.918;2024-02-16T06:03:23;5.20;99.90
43049;DHT22;28673;44.412;11.918;2024-02-16T06:05:49;5.20;99.90
43049;DHT22;28673;44.412;11.918;2024-02-16T06:08:15;5.10;99.90
43049;DHT22;28673;44.412;11.918;2024-02-16T06:10:45;5.00;99.90
43049;DHT22;28673;44.412;11.918;2024-02-16T06:13:17;5.00;99.90
43049;DHT22;28673;44.412;11.918;2024-02-16T06:15:43;5.00;99.90
43049;DHT22;28673;44.412;11.918;2024-02-16T06:18:09;5.00;99.90
43049;DHT22;28673;44.412;11.918;2024-02-16T06:20:35;4.90;99.90
43049;DHT22;28673;44.412;11.918;2024-02-16T06:23:00;5.00;99.90
43049;DHT22;28673;44.412;11.918;2024-02-16T06:25:27;5.00;99.90
43049;DHT22;28673;44.412;11.918;2024-02-16T06:27:53;5.00;99.90
43049;DHT22;28673;44.412;11.918;2024-02-16T06:30:18;5.00;99.90
43049;DHT22;28673;44.412;11.918;2024-02-16T06:32:44;5.10;99.90
43049;DHT22;28673;44.412;11.918;2024-02-16T06:35:10;5.00;99.90
43049;DHT22;28673;44.412;11.918;2024-02-16T06:37:37;5.00;99.90
43049;DHT22;28673;44.412;11.918;2024-02-16T06:40:08;4.90;99.90
43049;DHT22;28673;44.412;11.918;2024-02-16T06:42:36;5.00;99.90
43049;DHT22;28673;44.412;11.918;2024-02-16T06:45:02;5.00;99.90
43049;DHT22;28673;44.412;11.918;2024-02-16T06:47:29;5.00;99.90
43049;DHT22;28673;44.412;11.918;2024-02-16T06:49:55;5.00;99.90
43049;DHT22;28673;44.412;11.918;2024-02-16T06:52:20;4.90;99.90
43049;DHT22;28673;44.412;11.918;2024-02-16T06:54:46;4.90;99.90
43049;DHT22;28673;44.412;11.918;2024-02-16T06:57:12;4.90;99.90
43049;DHT22;28673;44.412;11.918;2024-02-16T06:59:38;5.00;99.90
43049;DHT22;28673;44.412;11.918;2024-02-16T07:02:03;5.00;99.90
43049;DHT22;28673;44.412;11.918;2024-02-16T07:04:32;5.10;99.90
43049;DHT22;28673;44.412;11.918;2024-02-16T07:06:58;5.10;99.90
43049;DHT22;28673;44.412;11.918;2024-02-16T07:09:23;5.10;99.90
43049;DHT22;28673;44.412;11.918;2024-02-16T07:11:49;5.10;99.90
43049;DHT22;28673;44.412;11.918;2024-02-16T07:14:16;5.20;99.90
43049;DHT22;28673;44.412;11.918;2024-02-16T07:16:42;5.20;99.90
43049;DHT22;28673;44.412;11.918;2024-02-16T07:19:08;5.20;99.90
43049;DHT22;28673;44.412;11.918;2024-02-16T07:21:34;5.30;99.90
43049;DHT22;28673;44.412;11.918;2024-02-16T07:24:00;5.40;99.90
43049;DHT22;28673;44.412;11.918;2024-02-16T07:26:26;5.50;99.90
43049;DHT22;28673;44.412;11.918;2024-02-16T07:28:52;5.60;99.90
43049;DHT22;28673;44.412;11.918;2024-02-16T07:31:17;5.60;99.90
43049;DHT22;28673;44.412;11.918;2024-02-16T07:33:43;5.70;99.90
43049;DHT22;28673;44.412;11.918;2024-02-16T07:36:09;5.70;99.90
43049;DHT22;28673;44.412;11.918;2024-02-16T07:38:35;5.80;99.90
43049;DHT22;28673;44.412;11.918;2024-02-16T07:41:01;5.90;99.90
43049;DHT22;28673;44.412;11.918;2024-02-16T07:43:27;6.00;99.90
43049;DHT22;28673;44.412;11.918;2024-02-16T07:45:53;6.10;99.90
43049;DHT22;28673;44.412;11.918;2024-02-16T07:48:22;6.10;99.90
43049;DHT22;28673;44.412;11.918;2024-02-16T07:50:48;6.20;99.90
43049;DHT22;28673;44.412;11.918;2024-02-16T07:53:15;6.20;99.90
43049;DHT22;28673;44.412;11.918;2024-02-16T07:55:41;6.30;99.90
43049;DHT22;28673;44.412;11.918;2024-02-16T07:58:07;6.40;99.90
43049;DHT22;28673;44.412;11.918;2024-02-16T08:00:34;6.50;99.90
43049;DHT22;28673;44.412;11.918;2024-02-16T08:03:00;6.50;99.90
43049;DHT22;28673;44.412;11.918;2024-02-16T08:05:26;6.50;99.90
43049;DHT22;28673;44.412;11.918;2024-02-16T08:07:52;6.60;99.90
43049;DHT22;28673;44.412;11.918;2024-02-16T08:10:20;6.70;99.90
43049;DHT22;28673;44.412;11.918;2024-02-16T08:12:47;6.80;99.90
43049;DHT22;28673;44.412;11.918;2024-02-16T08:15:12;6.80;99.90
43049;DHT22;28673;44.412;11.918;2024-02-16T08:17:39;6.90;99.90
43049;DHT22;28673;44.412;11.918;2024-02-16T08:20:05;6.90;99.90
43049;DHT22;28673;44.412;11.918;2024-02-16T08:22:32;6.90;99.90
43049;DHT22;28673;44.412;11.918;2024-02-16T08:24:58;7.00;99.90
43049;DHT22;28673;44.412;11.918;2024-02-16T08:27:24;7.00;99.90
43049;DHT22;28673;44.412;11.918;2024-02-16T08:29:50;7.10;99.90
43049;DHT22;28673;44.412;11.918;2024-02-16T08:32:17;7.20;99.90
43049;DHT22;28673;44.412;11.918;2024-02-16T08:34:43;7.30;99.90
43049;DHT22;28673;44.412;11.918;2024-02-16T08:37:09;7.30;99.90
43049;DHT22;28673;44.412;11.918;2024-02-16T08:39:38;7.30;99.90
43049;DHT22;28673;44.412;11.918;2024-02-16T08:42:03;7.40;99.90
43049;DHT22;28673;44.412;11.918;2024-02-16T08:44:29;7.40;99.90
43049;DHT22;28673;44.412;11.918;2024-02-16T08:46:55;7.40;99.90
43049;DHT22;28673;44.412;11.918;2024-02-16T08:49:21;7.40;99.90
43049;DHT22;28673;44.412;11.918;2024-02-16T08:51:48;7.50;99.90
43049;DHT22;28673;44.412;11.918;2024-02-16T08:54:13;7.50;99.90
43049;DHT22;28673;44.412;11.918;2024-02-16T08:56:39;7.50;99.90
43049;DHT22;28673;44.412;11.918;2024-02-16T08:59:06;7.50;99.90
43049;DHT22;28673;44.412;11.918;2024-02-16T09:01:36;7.50;99.90
43049;DHT22;28673;44.412;11.918;2024-02-16T09:04:02;7.60;99.90
43049;DHT22;28673;44.412;11.918;2024-02-16T09:06:28;7.70;99.90
43049;DHT22;28673;44.412;11.918;2024-02-16T09:08:55;7.70;99.90
43049;DHT22;28673;44.412;11.918;2024-02-16T09:11:22;7.80;99.90
43049;DHT22;28673;44.412;11.918;2024-02-16T09:13:48;7.80;99.90
43049;DHT22;28673;44.412;11.918;2024-02-16T09:16:14;7.90;99.90
43049;DHT22;28673;44.412;11.918;2024-02-16T09:18:40;8.00;99.90
43049;DHT22;28673;44.412;11.918;2024-02-16T09:21:06;8.10;99.90
43049;DHT22;28673;44.412;11.918;2024-02-16T09:23:33;8.10;99.90
43049;DHT22;28673;44.412;11.918;2024-02-16T09:25:59;8.20;99.90
43049;DHT22;28673;44.412;11.918;2024-02-16T09:28:29;8.30;99.90
43049;DHT22;28673;44.412;11.918;2024-02-16T09:30:55;8.40;99.90
43049;DHT22;28673;44.412;11.918;2024-02-16T09:33:21;8.50;99.90
43049;DHT22;28673;44.412;11.918;2024-02-16T09:35:48;8.60;99.90
43049;DHT22;28673;44.412;11.918;2024-02-16T09:38:14;8.70;99.90
43049;DHT22;28673;44.412;11.918;2024-02-16T09:40:40;8.80;99.90
43049;DHT22;28673;44.412;11.918;2024-02-16T09:43:06;8.90;99.90
43049;DHT22;28673;44.412;11.918;2024-02-16T09:45:33;9.00;99.90
43049;DHT22;28673;44.412;11.918;2024-02-16T09:47:59;9.00;99.90
43049;DHT22;28673;44.412;11.918;2024-02-16T09:50:26;9.20;99.90
43049;DHT22;28673;44.412;11.918;2024-02-16T09:52:55;9.30;99.90
43049;DHT22;28673;44.412;11.918;2024-02-16T09:55:21;9.50;99.90
43049;DHT22;28673;44.412;11.918;2024-02-16T09:57:58;9.80;99.90
43049;DHT22;28673;44.412;11.918;2024-02-16T10:00:25;10.10;99.90
43049;DHT22;28673;44.412;11.918;2024-02-16T10:02:51;10.30;99.90
43049;DHT22;28673;44.412;11.918;2024-02-16T10:05:19;10.60;99.90
43049;DHT22;28673;44.412;11.918;2024-02-16T10:07:46;10.90;99.90
43049;DHT22;28673;44.412;11.918;2024-02-16T10:10:28;11.10;99.90
43049;DHT22;28673;44.412;11.918;2024-02-16T10:13:05;11.30;99.90
43049;DHT22;28673;44.412;11.918;2024-02-16T10:15:35;11.50;99.90
43049;DHT22;28673;44.412;11.918;2024-02-16T10:18:05;11.60;99.90
43049;DHT22;28673;44.412;11.918;2024-02-16T10:20:32;11.80;99.90
43049;DHT22;28673;44.412;11.918;2024-02-16T10:25:30;12.10;99.90
43049;DHT22;28673;44.412;11.918;2024-02-16T10:27:57;12.30;99.90
43049;DHT22;28673;44.412;11.918;2024-02-16T10:30:29;12.50;99.90
43049;DHT22;28673;44.412;11.918;2024-02-16T10:32:54;12.70;99.90
43049;DHT22;28673;44.412;11.918;2024-02-16T10:35:21;12.90;99.90
43049;DHT22;28673;44.412;11.918;2024-02-16T10:37:49;13.20;99.90
43049;DHT22;28673;44.412;11.918;2024-02-16T10:40:16;13.40;99.90
43049;DHT22;28673;44.412;11.918;2024-02-16T10:42:45;13.70;99.90
43049;DHT22;28673;44.412;11.918;2024-02-16T10:45:12;13.90;99.90
43049;DHT22;28673;44.412;11.918;2024-02-16T10:47:39;14.10;99.90
43049;DHT22;28673;44.412;11.918;2024-02-16T10:50:05;14.30;99.90
43049;DHT22;28673;44.412;11.918;2024-02-16T10:52:32;14.50;99.90
43049;DHT22;28673;44.412;11.918;2024-02-16T10:54:59;14.60;99.90
43049;DHT22;28673;44.412;11.918;2024-02-16T10:57:25;14.80;99.90
43049;DHT22;28673;44.412;11.918;2024-02-16T10:59:53;15.00;99.90
43049;DHT22;28673;44.412;11.918;2024-02-16T11:02:21;15.30;99.90
43049;DHT22;28673;44.412;11.918;2024-02-16T11:04:48;15.40;99.90
43049;DHT22;28673;44.412;11.918;2024-02-16T11:07:17;15.40;99.90
43049;DHT22;28673;44.412;11.918;2024-02-16T11:09:44;15.50;99.90
43049;DHT22;28673;44.412;11.918;2024-02-16T11:12:12;15.70;99.90
43049;DHT22;28673;44.412;11.918;2024-02-16T11:14:43;15.80;99.90
43049;DHT22;28673;44.412;11.918;2024-02-16T11:17:14;15.90;99.90
43049;DHT22;28673;44.412;11.918;2024-02-16T11:19:45;16.00;99.90
43049;DHT22;28673;44.412;11.918;2024-02-16T11:22:14;16.10;99.90
43049;DHT22;28673;44.412;11.918;2024-02-16T11:24:48;16.20;99.90
43049;DHT22;28673;44.412;11.918;2024-02-16T11:27:15;16.40;99.90
43049;DHT22;28673;44.412;11.918;2024-02-16T11:29:45;16.50;99.90
43049;DHT22;28673;44.412;11.918;2024-02-16T11:32:11;16.60;99.90
43049;DHT22;28673;44.412;11.918;2024-02-16T11:34:37;16.80;99.90
43049;DHT22;28673;44.412;11.918;2024-02-16T11:37:05;16.90;99.90
43049;DHT22;28673;44.412;11.918;2024-02-16T11:39:32;17.00;99.90
43049;DHT22;28673;44.412;11.918;2024-02-16T11:42:11;17.10;99.90
43049;DHT22;28673;44.412;11.918;2024-02-16T11:44:38;17.10;99.90
43049;DHT22;28673;44.412;11.918;2024-02-16T11:47:06;17.00;99.90
43049;DHT22;28673;44.412;11.918;2024-02-16T11:49:34;16.90;99.90
43049;DHT22;28673;44.412;11.918;2024-02-16T11:52:00;16.90;99.90
43049;DHT22;28673;44.412;11.918;2024-02-16T11:54:26;17.00;99.90
43049;DHT22;28673;44.412;11.918;2024-02-16T11:56:52;17.10;99.90
43049;DHT22;28673;44.412;11.918;2024-02-16T11:59:21;17.20;99.90
43049;DHT22;28673;44.412;11.918;2024-02-16T12:04:27;17.60;99.90
43049;DHT22;28673;44.412;11.918;2024-02-16T12:06:57;17.60;99.90
43049;DHT22;28673;44.412;11.918;2024-02-16T12:09:23;17.70;99.90
43049;DHT22;28673;44.412;11.918;2024-02-16T12:11:50;17.80;99.90
43049;DHT22;28673;44.412;11.918;2024-02-16T12:14:21;17.90;99.90
43049;DHT22;28673;44.412;11.918;2024-02-16T12:16:52;17.80;99.90
43049;DHT22;28673;44.412;11.918;2024-02-16T12:19:21;17.80;99.90
43049;DHT22;28673;44.412;11.918;2024-02-16T12:21:54;18.00;99.90
43049;DHT22;28673;44.412;11.918;2024-02-16T12:24:21;18.10;99.90
43049;DHT22;28673;44.412;11.918;2024-02-16T12:26:47;18.00;99.90
43049;DHT22;28673;44.412;11.918;2024-02-16T12:29:13;17.80;99.90
43049;DHT22;28673;44.412;11.918;2024-02-16T12:31:40;17.70;99.90
43049;DHT22;28673;44.412;11.918;2024-02-16T12:34:07;17.60;99.90
43049;DHT22;28673;44.412;11.918;2024-02-16T12:36:38;17.50;99.90
43049;DHT22;28673;44.412;11.918;2024-02-16T12:39:04;17.40;99.90
43049;DHT22;28673;44.412;11.918;2024-02-16T12:41:34;17.40;99.90
43049;DHT22;28673;44.412;11.918;2024-02-16T12:44:01;17.40;99.90
43049;DHT22;28673;44.412;11.918;2024-02-16T12:46:27;17.30;99.90
43049;DHT22;28673;44.412;11.918;2024-02-16T12:48:56;17.20;99.90
43049;DHT22;28673;44.412;11.918;2024-02-16T12:51:22;17.10;99.90
43049;DHT22;28673;44.412;11.918;2024-02-16T12:53:51;17.00;99.90
43049;DHT22;28673;44.412;11.918;2024-02-16T12:56:18;16.80;99.90
43049;DHT22;28673;44.412;11.918;2024-02-16T12:58:44;16.70;99.90
43049;DHT22;28673;44.412;11.918;2024-02-16T13:01:10;16.80;99.90
43049;DHT22;28673;44.412;11.918;2024-02-16T13:03:37;16.70;99.90
43049;DHT22;28673;44.412;11.918;2024-02-16T13:06:03;16.60;99.90
43049;DHT22;28673;44.412;11.918;2024-02-16T13:08:30;16.50;99.90
43049;DHT22;28673;44.412;11.918;2024-02-16T13:10:56;16.40;99.90
43049;DHT22;28673;44.412;11.918;2024-02-16T13:13:22;16.50;99.90
43049;DHT22;28673;44.412;11.918;2024-02-16T13:15:49;16.50;99.90
43049;DHT22;28673;44.412;11.918;2024-02-16T13:18:15;16.50;99.90
43049;DHT22;28673;44.412;11.918;2024-02-16T13:20:41;16.50;99.90
43049;DHT22;28673;44.412;11.918;2024-02-16T13:23:07;16.60;99.90
43049;DHT22;28673;44.412;11.918;2024-02-16T13:25:32;16.80;99.90
43049;DHT22;28673;44.412;11.918;2024-02-16T13:27:58;16.80;99.90
43049;DHT22;28673;44.412;11.918;2024-02-16T13:30:25;16.80;99.90
43049;DHT22;28673;44.412;11.918;2024-02-16T13:32:56;16.70;99.90
43049;DHT22;28673;44.412;11.918;2024-02-16T13:35:23;16.70;99.90
43049;DHT22;28673;44.412;11.918;2024-02-16T13:37:49;16.60;99.90
43049;DHT22;28673;44.412;11.918;2024-02-16T13:40:15;16.50;99.90
43049;DHT22;28673;44.412;11.918;2024-02-16T13:42:42;16.50;99.90
43049;DHT22;28673;44.412;11.918;2024-02-16T13:45:08;16.60;99.90
43049;DHT22;28673;44.412;11.918;2024-02-16T13:47:35;16.60;99.90
43049;DHT22;28673;44.412;11.918;2024-02-16T13:50:01;16.50;99.90
43049;DHT22;28673;44.412;11.918;2024-02-16T13:52:28;16.40;99.90
43049;DHT22;28673;44.412;11.918;2024-02-16T13:54:54;16.20;99.90
43049;DHT22;28673;44.412;11.918;2024-02-16T13:57:20;16.10;99.90
43049;DHT22;28673;44.412;11.918;2024-02-16T13:59:46;16.10;99.90
43049;DHT22;28673;44.412;11.918;2024-02-16T14:02:12;16.10;99.90
43049;DHT22;28673;44.412;11.918;2024-02-16T14:04:38;16.00;99.90
43049;DHT22;28673;44.412;11.918;2024-02-16T14:07:04;15.90;99.90
43049;DHT22;28673;44.412;11.918;2024-02-16T14:09:30;15.80;99.90
43049;DHT22;28673;44.412;11.918;2024-02-16T14:11:56;15.70;99.90
43049;DHT22;28673;44.412;11.918;2024-02-16T14:14:27;15.60;99.90
43049;DHT22;28673;44.412;11.918;2024-02-16T14:16:54;15.60;99.90
43049;DHT22;28673;44.412;11.918;2024-02-16T14:19:19;15.60;99.90
43049;DHT22;28673;44.412;11.918;2024-02-16T14:21:45;15.40;99.90
43049;DHT22;28673;44.412;11.918;2024-02-16T14:24:18;15.30;99.90
43049;DHT22;28673;44.412;11.918;2024-02-16T14:26:44;15.10;99.90
43049;DHT22;28673;44.412;11.918;2024-02-16T14:29:09;14.90;99.90
43049;DHT22;28673;44.412;11.918;2024-02-16T14:31:36;14.80;99.90
43049;DHT22;28673;44.412;11.918;2024-02-16T14:34:02;14.70;99.90
43049;DHT22;28673;44.412;11.918;2024-02-16T14:36:27;14.60;99.90
43049;DHT22;28673;44.412;11.918;2024-02-16T14:38:53;14.50;99.90
43049;DHT22;28673;44.412;11.918;2024-02-16T14:41:19;14.40;99.90
43049;DHT22;28673;44.412;11.918;2024-02-16T14:43:45;14.40;99.90
43049;DHT22;28673;44.412;11.918;2024-02-16T14:46:12;14.30;99.90
43049;DHT22;28673;44.412;11.918;2024-02-16T14:48:38;14.30;99.90
43049;DHT22;28673;44.412;11.918;2024-02-16T14:51:04;14.30;99.90
43049;DHT22;28673;44.412;11.918;2024-02-16T14:53:30;14.40;99.90
43049;DHT22;28673;44.412;11.918;2024-02-16T14:55:58;14.50;99.90
43049;DHT22;28673;44.412;11.918;2024-02-16T14:58:24;14.50;99.90
43049;DHT22;28673;44.412;11.918;2024-02-16T15:00:51;14.50;99.90
43049;DHT22;28673;44.412;11.918;2024-02-16T15:03:17;14.50;99.90
43049;DHT22;28673;44.412;11.918;2024-02-16T15:05:45;14.60;99.90
43049;DHT22;28673;44.412;11.918;2024-02-16T15:08:11;14.60;99.90
43049;DHT22;28673;44.412;11.918;2024-02-16T15:10:36;14.60;99.90
43049;DHT22;28673;44.412;11.918;2024-02-16T15:13:02;14.50;99.90
43049;DHT22;28673;44.412;11.918;2024-02-16T15:15:28;14.50;99.90
43049;DHT22;28673;44.412;11.918;2024-02-16T15:17:54;14.50;99.90
43049;DHT22;28673;44.412;11.918;2024-02-16T15:20:21;14.50;99.90
43049;DHT22;28673;44.412;11.918;2024-02-16T15:22:48;14.50;99.90
43049;DHT22;28673;44.412;11.918;2024-02-16T15:25:14;14.60;99.90
43049;DHT22;28673;44.412;11.918;2024-02-16T15:27:39;14.60;99.90